Time;durP1;ratioP1;P1;durP2;ratioP2;P2;SDS_P1;SDS_P2;PMS_P1;PMS_P2;Temp;Humidity;BMP_temperature;BMP_pressure;BME280_temperature;BME280_humidity;BME280_pressure;Samples;Min_cycle;Max_cycle;Signal;HPM_P1;HPM_P2
2022/09/18 00:00:12;;;;;;;0.95;0.50;;;17.40;38.30;;;;;;6167196;28;20448;-79
2022/09/18 00:03:14;;;;;;;1.73;0.63;;;17.40;38.30;;;;;;6167847;28;20038;-79
2022/09/18 00:06:19;;;;;;;1.95;0.65;;;17.40;38.50;;;;;;6158321;28;20097;-79
2022/09/18 00:09:20;;;;;;;8.93;0.65;;;17.30;38.60;;;;;;6137587;28;20115;-79
2022/09/18 00:12:21;;;;;;;3.20;0.60;;;17.30;38.70;;;;;;6150457;28;20520;-79
2022/09/18 00:15:22;;;;;;;1.10;0.40;;;17.30;38.70;;;;;;6171074;28;20031;-79
2022/09/18 00:18:23;;;;;;;0.70;0.30;;;17.20;38.70;;;;;;6156362;28;20039;-79
2022/09/18 00:21:24;;;;;;;0.70;0.50;;;17.20;38.70;;;;;;6167185;28;20491;-79
2022/09/18 00:24:25;;;;;;;1.85;0.38;;;17.20;38.90;;;;;;6151086;28;20423;-79
2022/09/18 00:27:26;;;;;;;2.47;0.35;;;17.20;39.00;;;;;;6149043;28;20031;-79
2022/09/18 00:30:28;;;;;;;0.75;0.50;;;17.20;39.10;;;;;;6156124;28;20085;-79
2022/09/18 00:33:29;;;;;;;1.23;0.30;;;17.10;39.20;;;;;;6153102;28;20043;-79
2022/09/18 00:36:30;;;;;;;0.80;0.55;;;17.10;39.30;;;;;;6169647;28;20396;-78
2022/09/18 00:39:30;;;;;;;1.17;0.28;;;17.00;39.50;;;;;;6160560;28;20046;-78
2022/09/18 00:42:32;;;;;;;3.28;0.40;;;17.00;39.70;;;;;;6147889;28;20515;-78
2022/09/18 00:45:33;;;;;;;0.82;0.63;;;16.90;39.90;;;;;;6146742;28;20087;-80
2022/09/18 00:48:50;;;;;;;2.10;0.40;;;16.90;40.00;;;;;;6148593;28;20039;-79
2022/09/18 00:51:54;;;;;;;0.63;0.30;;;16.80;40.10;;;;;;6166990;28;20038;-80
2022/09/18 00:55:08;;;;;;;0.50;0.30;;;16.80;40.30;;;;;;6158478;28;20447;-77
2022/09/18 00:58:09;;;;;;;3.35;0.65;;;16.80;40.60;;;;;;6155419;28;20523;-78
2022/09/18 01:01:11;;;;;;;1.35;0.50;;;16.80;40.70;;;;;;6139127;28;20090;-78
2022/09/18 01:04:12;;;;;;;2.13;0.45;;;16.80;40.80;;;;;;6160780;28;20035;-78
2022/09/18 01:07:48;;;;;;;2.75;0.40;;;16.90;40.90;;;;;;6158420;28;20034;-79
2022/09/18 01:11:01;;;;;;;4.53;0.82;;;16.80;41.20;;;;;;6149142;28;20376;-78
2022/09/18 01:14:05;;;;;;;1.00;0.50;;;16.80;41.30;;;;;;6150436;28;20462;-78
2022/09/18 01:17:20;;;;;;;3.60;0.45;;;16.70;41.30;;;;;;6160566;28;20073;-78
2022/09/18 01:20:20;;;;;;;2.88;0.77;;;16.70;41.60;;;;;;6160283;28;20039;-79
2022/09/18 01:23:51;;;;;;;1.92;0.52;;;16.70;41.70;;;;;;6139792;28;20039;-79
2022/09/18 01:27:03;;;;;;;0.50;0.50;;;16.60;41.70;;;;;;6154152;28;20035;-78
2022/09/18 01:30:08;;;;;;;0.88;0.82;;;16.60;41.90;;;;;;6151881;28;20108;-79
2022/09/18 01:33:22;;;;;;;0.55;0.43;;;16.60;42.10;;;;;;6134664;28;20037;-79
2022/09/18 01:36:28;;;;;;;4.22;0.50;;;16.50;42.00;;;;;;6159656;28;20083;-78
2022/09/18 01:39:45;;;;;;;4.53;0.80;;;16.50;42.20;;;;;;6130156;28;20050;-79
2022/09/18 01:42:48;;;;;;;3.72;0.40;;;16.40;42.30;;;;;;6149670;28;20031;-79
2022/09/18 01:45:53;;;;;;;1.60;0.47;;;16.40;42.50;;;;;;6147417;28;20138;-79
2022/09/18 01:49:13;;;;;;;0.60;0.43;;;16.30;42.90;;;;;;6163660;28;20078;-79
2022/09/18 01:52:26;;;;;;;0.80;0.50;;;16.30;43.40;;;;;;6169737;28;20349;-79
2022/09/18 01:55:29;;;;;;;3.13;0.85;;;16.20;43.40;;;;;;6164215;28;20035;-79
2022/09/18 01:58:32;;;;;;;3.10;0.68;;;16.20;43.50;;;;;;6144054;28;20042;-79
2022/09/18 02:01:36;;;;;;;7.50;1.15;;;16.20;43.60;;;;;;6147193;28;20596;-79
2022/09/18 02:04:41;;;;;;;1.05;0.55;;;16.20;43.80;;;;;;6148346;28;20046;-79
2022/09/18 02:07:52;;;;;;;4.13;0.93;;;16.20;43.90;;;;;;6147451;28;20122;-79
2022/09/18 02:11:06;;;;;;;2.50;0.80;;;16.20;44.60;;;;;;6146710;28;20300;-78
2022/09/18 02:14:10;;;;;;;1.52;0.47;;;16.10;44.20;;;;;;6154710;28;20046;-79
2022/09/18 02:17:46;;;;;;;5.22;1.20;;;16.00;44.40;;;;;;6157389;28;20039;-79
2022/09/18 02:20:48;;;;;;;0.40;0.40;;;15.90;44.90;;;;;;6128327;28;20035;-79
2022/09/18 02:23:53;;;;;;;2.70;0.60;;;15.80;45.20;;;;;;6147184;28;20121;-79
2022/09/18 02:26:57;;;;;;;0.35;0.35;;;15.70;45.40;;;;;;6131571;28;20054;-79
2022/09/18 02:30:01;;;;;;;1.30;0.68;;;15.60;45.50;;;;;;6131394;28;20058;-80
2022/09/18 02:33:02;;;;;;;1.60;0.50;;;15.60;45.40;;;;;;6145888;28;20039;-79
2022/09/18 02:36:40;;;;;;;1.00;0.40;;;15.50;45.40;;;;;;6132780;28;20476;-80
2022/09/18 02:39:44;;;;;;;0.85;0.40;;;15.50;45.50;;;;;;6147349;28;20039;-79
2022/09/18 02:43:09;;;;;;;4.18;0.77;;;15.50;45.60;;;;;;6147277;28;20039;-78
2022/09/18 02:46:29;;;;;;;0.45;0.45;;;15.50;45.70;;;;;;6140297;28;20047;-78
2022/09/18 02:50:03;;;;;;;0.50;0.50;;;15.50;45.70;;;;;;6144385;28;20050;-79
2022/09/18 02:53:23;;;;;;;3.97;0.82;;;15.50;45.80;;;;;;6144808;28;20058;-78
2022/09/18 02:56:36;;;;;;;;;;;15.50;45.90;;;;;;6156645;28;20086;-78
2022/09/18 02:59:46;;;;;;;1.55;0.60;;;15.60;46.10;;;;;;6153294;28;19914;-78
2022/09/18 03:02:50;;;;;;;0.52;0.52;;;15.60;46.10;;;;;;6148304;28;20042;-79
2022/09/18 03:06:02;;;;;;;1.17;0.50;;;15.60;46.10;;;;;;6148990;28;20050;-80
2022/09/18 03:09:04;;;;;;;3.25;0.93;;;15.60;46.10;;;;;;6131358;28;20411;-79
2022/09/18 03:12:05;;;;;;;1.10;0.57;;;15.60;46.00;;;;;;6147067;28;20039;-79
2022/09/18 03:15:11;;;;;;;4.28;0.68;;;15.70;46.00;;;;;;6123645;28;20360;-78
2022/09/18 03:18:14;;;;;;;0.95;0.45;;;15.70;46.00;;;;;;6170041;28;20050;-78
2022/09/18 03:21:15;;;;;;;3.13;0.50;;;15.70;46.30;;;;;;6168614;28;20043;-78
2022/09/18 03:24:17;;;;;;;3.72;0.57;;;15.60;46.70;;;;;;6147048;28;20031;-79
2022/09/18 03:27:19;;;;;;;1.00;0.50;;;15.70;46.90;;;;;;6130243;28;20031;-78
2022/09/18 03:30:21;;;;;;;0.80;0.40;;;15.60;46.90;;;;;;6130417;28;20074;-78
2022/09/18 03:33:23;;;;;;;0.50;0.50;;;15.50;46.90;;;;;;6148143;28;20042;-79
2022/09/18 03:36:23;;;;;;;0.63;0.45;;;15.40;47.10;;;;;;6168473;28;20464;-79
2022/09/18 03:39:27;;;;;;;0.50;0.40;;;15.30;47.10;;;;;;6151186;28;20350;-79
2022/09/18 03:42:28;;;;;;;2.42;0.70;;;15.30;47.10;;;;;;6122440;28;20031;-80
2022/09/18 03:45:33;;;;;;;6.15;0.80;;;15.20;47.10;;;;;;6156014;28;20034;-78
2022/09/18 03:48:35;;;;;;;12.00;1.10;;;15.20;47.20;;;;;;6155802;28;20063;-78
2022/09/18 03:51:37;;;;;;;0.60;0.50;;;15.20;47.20;;;;;;6161953;28;20039;-78
2022/09/18 03:54:40;;;;;;;7.10;0.93;;;15.20;47.30;;;;;;6151294;28;20047;-80
2022/09/18 03:58:04;;;;;;;1.27;0.50;;;15.20;47.40;;;;;;6098706;29;20047;-78
2022/09/18 04:01:24;;;;;;;2.67;0.70;;;15.20;47.50;;;;;;6095425;29;20044;-78
2022/09/18 04:04:48;;;;;;;2.30;0.77;;;15.10;47.80;;;;;;6093683;29;20036;-78
2022/09/18 04:07:51;;;;;;;7.32;0.65;;;15.10;48.00;;;;;;6069666;29;20051;-79
2022/09/18 04:11:11;;;;;;;2.05;0.50;;;15.10;48.10;;;;;;6094323;29;20040;-79
2022/09/18 04:14:12;;;;;;;2.00;1.00;;;15.10;48.30;;;;;;6094722;29;20381;-79
2022/09/18 04:17:15;;;;;;;1.08;0.55;;;15.00;48.40;;;;;;6084641;29;20139;-79
2022/09/18 04:20:16;;;;;;;0.93;0.45;;;15.00;48.40;;;;;;6097021;29;20153;-79
2022/09/18 04:23:17;;;;;;;0.95;0.40;;;14.90;48.50;;;;;;6086663;29;20040;-79
2022/09/18 04:26:18;;;;;;;3.95;0.70;;;14.90;48.60;;;;;;6081233;29;20814;-79
2022/09/18 04:29:26;;;;;;;2.10;0.77;;;14.80;48.60;;;;;;6079556;29;20500;-79
2022/09/18 04:32:27;;;;;;;4.65;0.57;;;14.80;48.50;;;;;;6095493;29;20115;-80
2022/09/18 04:35:27;;;;;;;4.50;0.60;;;14.70;48.60;;;;;;6126919;28;20119;-80
2022/09/18 04:38:29;;;;;;;1.42;0.47;;;14.70;48.70;;;;;;6165173;28;20035;-79
2022/09/18 04:41:30;;;;;;;2.42;1.13;;;14.70;48.70;;;;;;6160375;28;20453;-79
2022/09/18 04:44:32;;;;;;;1.45;1.23;;;14.70;48.80;;;;;;6151805;28;20421;-79
2022/09/18 04:47:33;;;;;;;2.38;0.90;;;14.70;48.80;;;;;;6149764;28;20027;-79
2022/09/18 04:50:34;;;;;;;5.43;0.73;;;14.60;48.90;;;;;;6153196;28;20047;-79
2022/09/18 04:53:45;;;;;;;1.13;0.80;;;14.60;49.00;;;;;;6149722;28;20149;-79
2022/09/18 04:56:46;;;;;;;0.73;0.40;;;14.60;49.10;;;;;;6150882;28;20366;-78
2022/09/18 04:59:49;;;;;;;1.13;0.47;;;14.60;49.10;;;;;;6150415;28;20027;-77
2022/09/18 05:02:50;;;;;;;0.75;0.55;;;14.50;49.10;;;;;;6135929;28;20039;-77
2022/09/18 05:05:55;;;;;;;0.80;0.40;;;14.50;49.20;;;;;;6147477;28;20039;-79
2022/09/18 05:08:57;;;;;;;2.47;0.82;;;14.50;49.30;;;;;;6132084;28;20058;-79
2022/09/18 05:11:59;;;;;;;0.93;0.70;;;14.50;49.40;;;;;;6133069;28;20062;-78
2022/09/18 05:15:00;;;;;;;2.03;0.52;;;14.40;49.40;;;;;;6150331;28;20476;-79
2022/09/18 05:18:04;;;;;;;14.25;0.70;;;14.50;49.40;;;;;;6135256;28;20039;-79
2022/09/18 05:21:05;;;;;;;0.47;0.47;;;14.50;49.40;;;;;;6151384;28;20175;-79
2022/09/18 05:24:07;;;;;;;0.40;0.40;;;14.50;49.50;;;;;;6143340;28;20031;-79
2022/09/18 05:27:08;;;;;;;1.88;0.80;;;14.50;49.60;;;;;;6165832;28;20030;-79
2022/09/18 05:30:10;;;;;;;0.38;0.38;;;14.50;49.70;;;;;;6151716;28;20048;-79
2022/09/18 05:33:25;;;;;;;1.67;0.65;;;14.40;49.80;;;;;;6154288;28;20045;-80
2022/09/18 05:36:27;;;;;;;1.17;0.60;;;14.50;49.90;;;;;;6158207;28;20028;-79
2022/09/18 05:39:28;;;;;;;1.80;0.65;;;14.40;49.90;;;;;;6150548;28;20118;-79
2022/09/18 05:42:32;;;;;;;3.65;0.60;;;14.40;49.90;;;;;;6151750;28;20044;-79
2022/09/18 05:45:34;;;;;;;2.50;0.50;;;14.40;49.90;;;;;;6151835;28;20032;-79
2022/09/18 05:48:38;;;;;;;5.40;0.80;;;14.40;50.00;;;;;;6148412;28;20031;-79
2022/09/18 05:51:40;;;;;;;9.18;0.93;;;14.40;50.00;;;;;;6135366;28;20134;-80
2022/09/18 05:54:42;;;;;;;1.33;0.68;;;14.40;50.10;;;;;;6146695;28;20348;-78
2022/09/18 05:57:44;;;;;;;1.23;0.52;;;14.40;50.30;;;;;;6149660;28;20676;-78
2022/09/18 06:00:45;;;;;;;0.98;0.63;;;14.40;50.40;;;;;;6150993;28;20031;-79
2022/09/18 06:03:53;;;;;;;3.65;0.80;;;14.40;50.50;;;;;;6155145;28;20027;-79
2022/09/18 06:06:56;;;;;;;2.47;0.70;;;14.40;50.50;;;;;;6150683;28;20074;-79
2022/09/18 06:09:57;;;;;;;1.67;0.60;;;14.40;50.60;;;;;;6150852;28;20055;-79
2022/09/18 06:13:01;;;;;;;1.50;0.82;;;14.40;50.60;;;;;;6153954;28;20055;-79
2022/09/18 06:16:02;;;;;;;7.60;0.70;;;14.50;50.60;;;;;;6154020;28;20477;-79
2022/09/18 06:19:24;;;;;;;2.78;0.80;;;14.50;50.50;;;;;;6149593;28;20333;-80
2022/09/18 06:22:26;;;;;;;2.78;1.23;;;14.50;50.60;;;;;;6149982;28;20114;-80
2022/09/18 06:25:28;;;;;;;4.03;1.25;;;14.50;50.70;;;;;;6152229;28;20035;-79
2022/09/18 06:28:31;;;;;;;1.55;0.95;;;14.50;50.70;;;;;;6148176;28;20104;-79
2022/09/18 06:31:34;;;;;;;1.20;0.70;;;14.50;50.80;;;;;;6149118;28;20077;-79
2022/09/18 06:34:43;;;;;;;2.05;1.15;;;14.60;50.80;;;;;;6148648;28;20031;-80
2022/09/18 06:37:47;;;;;;;2.80;1.10;;;14.60;50.80;;;;;;6134496;28;20039;-79
2022/09/18 06:41:02;;;;;;;1.10;0.80;;;14.60;50.70;;;;;;6149642;28;20047;-79
2022/09/18 06:44:16;;;;;;;5.90;1.83;;;14.60;50.70;;;;;;6146134;28;20425;-79
2022/09/18 06:47:21;;;;;;;8.77;0.82;;;14.70;50.70;;;;;;6148307;28;20036;-80
2022/09/18 06:50:25;;;;;;;1.10;0.57;;;14.70;50.70;;;;;;6131880;28;20071;-79
2022/09/18 06:53:25;;;;;;;1.08;0.63;;;14.70;50.80;;;;;;6148128;28;20122;-79
2022/09/18 06:56:32;;;;;;;4.60;1.00;;;14.70;50.70;;;;;;6157948;28;20155;-79
2022/09/18 06:59:33;;;;;;;2.40;1.00;;;14.80;50.60;;;;;;6147025;28;20500;-79
2022/09/18 07:02:35;;;;;;;1.55;0.88;;;14.80;50.50;;;;;;6148360;28;20035;-79
2022/09/18 07:05:55;;;;;;;1.10;0.90;;;14.80;50.40;;;;;;6148543;28;20369;-79
2022/09/18 07:09:07;;;;;;;0.73;0.50;;;14.90;50.50;;;;;;6147347;28;20380;-79
2022/09/18 07:12:30;;;;;;;1.35;0.80;;;15.10;50.50;;;;;;6172493;28;20054;-79
2022/09/18 07:15:32;;;;;;;4.82;1.00;;;15.20;50.20;;;;;;6171720;28;20065;-80
2022/09/18 07:18:33;;;;;;;1.35;0.82;;;15.30;49.90;;;;;;6159003;28;20078;-81
2022/09/18 07:21:36;;;;;;;5.28;0.80;;;15.40;49.70;;;;;;6160282;28;20041;-80
2022/09/18 07:24:37;;;;;;;2.05;0.45;;;15.50;49.40;;;;;;6170004;28;20026;-79
2022/09/18 07:27:39;;;;;;;6.68;1.00;;;15.60;49.10;;;;;;6172844;28;20042;-79
2022/09/18 07:30:40;;;;;;;13.93;1.42;;;15.70;49.00;;;;;;6153170;28;20046;-79
2022/09/18 07:33:41;;;;;;;4.75;1.02;;;15.80;48.80;;;;;;6151815;28;20535;-79
2022/09/18 07:36:49;;;;;;;1.33;1.13;;;15.90;48.70;;;;;;6148587;28;20507;-79
2022/09/18 07:39:50;;;;;;;17.23;1.33;;;16.00;48.50;;;;;;6165897;28;20333;-79
2022/09/18 07:43:09;;;;;;;1.75;1.02;;;16.00;48.20;;;;;;6145811;28;20536;-79
2022/09/18 07:46:17;;;;;;;0.88;0.77;;;16.10;48.10;;;;;;6145800;28;20039;-80
2022/09/18 07:49:20;;;;;;;2.08;0.75;;;16.20;47.80;;;;;;6128537;28;20027;-78
2022/09/18 07:52:21;;;;;;;0.88;0.70;;;16.30;47.50;;;;;;6146499;28;20107;-79
2022/09/18 07:55:26;;;;;;;1.05;0.68;;;16.30;47.30;;;;;;6128086;28;20023;-79
2022/09/18 07:58:27;;;;;;;1.58;0.80;;;16.40;47.10;;;;;;6129178;28;20027;-80
2022/09/18 08:01:29;;;;;;;1.25;0.70;;;16.40;47.00;;;;;;6146779;28;20373;-78
2022/09/18 08:04:31;;;;;;;5.53;1.05;;;16.50;46.90;;;;;;6146605;28;20032;-80
2022/09/18 08:07:41;;;;;;;4.93;0.80;;;16.60;46.80;;;;;;6145801;28;20046;-78
2022/09/18 08:11:11;;;;;;;1.05;0.75;;;16.70;46.60;;;;;;6090513;29;20044;-79
2022/09/18 08:14:48;;;;;;;2.85;0.77;;;16.90;46.40;;;;;;6048309;29;20041;-79
2022/09/18 08:18:08;;;;;;;2.73;0.63;;;17.00;46.00;;;;;;6049339;29;20040;-78
2022/09/18 08:21:29;;;;;;;1.10;0.75;;;17.10;45.70;;;;;;6040270;29;20037;-79
2022/09/18 08:24:32;;;;;;;2.92;0.95;;;17.20;46.10;;;;;;6034244;29;20044;-79
2022/09/18 08:27:40;;;;;;;7.43;0.80;;;17.30;45.50;;;;;;6042096;29;20379;-79
2022/09/18 08:30:41;;;;;;;0.85;0.68;;;17.40;45.30;;;;;;6045638;29;20053;-79
2022/09/18 08:33:44;;;;;;;0.50;0.50;;;17.50;45.10;;;;;;6039507;29;20060;-79
2022/09/18 08:36:45;;;;;;;1.23;0.52;;;17.60;44.60;;;;;;6051095;29;20137;-79
2022/09/18 08:39:55;;;;;;;2.55;0.70;;;17.70;44.50;;;;;;6047682;29;20041;-79
2022/09/18 08:43:40;;;;;;;1.48;0.60;;;17.80;44.30;;;;;;6049628;29;20045;-78
2022/09/18 08:46:50;;;;;;;6.45;0.70;;;18.00;44.10;;;;;;6064803;29;20044;-79
2022/09/18 08:50:05;;;;;;;8.63;3.22;;;18.20;43.70;;;;;;6055217;29;20497;-79
2022/09/18 08:53:15;;;;;;;4.85;2.65;;;18.30;43.30;;;;;;6039184;29;20434;-78
2022/09/18 08:56:35;;;;;;;4.25;1.08;;;18.30;43.00;;;;;;6053733;29;20141;-79
2022/09/18 08:59:56;;;;;;;4.00;0.90;;;18.40;43.00;;;;;;6053314;29;20096;-80
2022/09/18 09:03:30;;;;;;;4.18;0.95;;;18.50;42.70;;;;;;6048255;29;20192;-80
2022/09/18 09:07:03;;;;;;;9.70;3.80;;;18.50;42.60;;;;;;6045886;29;20048;-80
2022/09/18 09:10:41;;;;;;;8.52;3.83;;;18.50;42.50;;;;;;6055612;29;20352;-79
2022/09/18 09:14:06;;;;;;;6.28;1.80;;;18.60;42.40;;;;;;6006442;29;20538;-78
2022/09/18 09:17:36;;;;;;;14.07;1.42;;;18.60;42.10;;;;;;6018948;29;20044;-78
2022/09/18 09:20:56;;;;;;;3.42;1.13;;;18.80;42.10;;;;;;6081100;29;20044;-78
2022/09/18 09:24:26;;;;;;;1.73;0.90;;;18.80;41.70;;;;;;6068224;29;20052;-79
2022/09/18 09:27:48;;;;;;;1.85;0.80;;;18.90;41.80;;;;;;6080242;29;20039;-78
2022/09/18 09:31:09;;;;;;;4.15;1.13;;;19.00;41.70;;;;;;6093472;29;20139;-77
2022/09/18 09:34:54;;;;;;;7.40;1.10;;;19.10;41.40;;;;;;6099188;29;20044;-79
2022/09/18 09:38:40;;;;;;;2.10;0.63;;;19.20;41.20;;;;;;6073830;29;20043;-79
2022/09/18 09:41:51;;;;;;;1.30;0.60;;;19.30;40.90;;;;;;6097677;29;20036;-78
2022/09/18 09:45:16;;;;;;;1.77;0.75;;;19.40;40.50;;;;;;6081578;29;20477;-79
2022/09/18 09:48:17;;;;;;;1.95;1.00;;;19.30;40.50;;;;;;6095832;28;20050;-78
2022/09/18 09:52:03;;;;;;;2.42;0.60;;;19.40;40.40;;;;;;6130648;28;20110;-79
2022/09/18 09:55:18;;;;;;;0.65;0.50;;;19.30;40.30;;;;;;6142308;28;20035;-80
2022/09/18 09:58:22;;;;;;;1.67;0.50;;;19.30;40.30;;;;;;6123378;28;20053;-79
2022/09/18 10:01:31;;;;;;;4.10;0.90;;;19.40;40.30;;;;;;6144366;28;20055;-81
2022/09/18 10:04:43;;;;;;;2.30;0.82;;;19.40;40.10;;;;;;6140269;28;20182;-80
2022/09/18 10:08:10;;;;;;;3.72;1.83;;;19.40;40.10;;;;;;6168316;28;20429;-80
2022/09/18 10:11:13;;;;;;;1.85;0.90;;;19.30;40.10;;;;;;6153259;28;20046;-78
2022/09/18 10:14:24;;;;;;;0.77;0.70;;;19.40;40.10;;;;;;6171642;28;20035;-78
2022/09/18 10:17:37;;;;;;;1.77;0.85;;;19.50;40.10;;;;;;6170032;28;20468;-80
2022/09/18 10:20:40;;;;;;;0.88;0.75;;;19.60;39.90;;;;;;6154914;28;20042;-79
2022/09/18 10:23:49;;;;;;;2.72;0.70;;;19.70;39.80;;;;;;6131081;28;20039;-78
2022/09/18 10:26:57;;;;;;;1.52;0.70;;;19.80;39.60;;;;;;6146848;28;20065;-79
2022/09/18 10:29:59;;;;;;;4.00;0.77;;;19.90;39.30;;;;;;6147382;28;20494;-79
2022/09/18 10:33:51;;;;;;;0.47;0.38;;;20.30;38.90;;;;;;6126682;28;20122;-79
2022/09/18 10:37:05;;;;;;;1.15;0.70;;;20.70;38.00;;;;;;6116893;29;20600;-81
2022/09/18 10:40:28;;;;;;;2.10;0.90;;;21.10;37.50;;;;;;6106866;29;20387;-79
2022/09/18 10:43:31;;;;;;;1.48;0.40;;;21.30;36.60;;;;;;6122458;29;20381;-77
2022/09/18 10:46:36;;;;;;;5.28;0.80;;;21.60;36.00;;;;;;6105205;29;20063;-80
2022/09/18 10:49:55;;;;;;;0.82;0.60;;;21.80;35.70;;;;;;6128555;29;20115;-80
2022/09/18 10:53:19;;;;;;;2.45;0.98;;;22.10;35.00;;;;;;6132446;29;20047;-80
2022/09/18 10:56:20;;;;;;;1.10;0.50;;;22.40;34.40;;;;;;6095600;29;20122;-80
2022/09/18 10:59:27;;;;;;;4.32;0.90;;;22.70;34.10;;;;;;6112305;29;20095;-79
2022/09/18 11:02:40;;;;;;;2.75;1.05;;;22.90;33.30;;;;;;6103844;29;20036;-80
2022/09/18 11:05:57;;;;;;;1.40;0.88;;;23.10;33.10;;;;;;6113601;29;20158;-81
2022/09/18 11:09:01;;;;;;;3.78;0.88;;;23.10;32.90;;;;;;6090371;29;20048;-78
2022/09/18 11:12:03;;;;;;;2.75;0.60;;;23.20;32.50;;;;;;6125931;28;20499;-80
2022/09/18 11:15:15;;;;;;;1.55;0.70;;;23.20;32.50;;;;;;6169843;28;20030;-81
2022/09/18 11:18:17;;;;;;;3.40;0.88;;;23.10;32.60;;;;;;6147391;28;20408;-80
2022/09/18 11:21:20;;;;;;;0.45;0.40;;;23.10;32.80;;;;;;6144105;28;20035;-80
2022/09/18 11:24:25;;;;;;;0.55;0.55;;;23.20;32.90;;;;;;6153863;28;20039;-80
2022/09/18 11:27:44;;;;;;;3.17;0.75;;;23.40;32.90;;;;;;6139162;28;20465;-78
2022/09/18 11:30:58;;;;;;;2.00;0.73;;;23.70;32.50;;;;;;6140649;28;20491;-80
2022/09/18 11:33:59;;;;;;;2.13;0.70;;;23.90;32.40;;;;;;6169606;28;20511;-80
2022/09/18 11:37:11;;;;;;;4.80;0.80;;;24.30;31.90;;;;;;6168843;28;20042;-80
2022/09/18 11:40:18;;;;;;;1.17;0.52;;;24.70;31.50;;;;;;6148026;28;20061;-80
2022/09/18 11:43:24;;;;;;;2.05;0.60;;;24.90;31.30;;;;;;6148806;28;20039;-80
2022/09/18 11:46:50;;;;;;;1.83;0.80;;;25.10;30.90;;;;;;6144684;28;20062;-81
2022/09/18 11:50:03;;;;;;;3.38;0.80;;;25.40;30.90;;;;;;6159531;28;20065;-80
2022/09/18 11:53:14;;;;;;;4.57;0.70;;;25.80;30.50;;;;;;6138719;28;20054;-78
2022/09/18 11:56:27;;;;;;;1.35;0.57;;;26.20;30.00;;;;;;6132111;28;20050;-78
2022/09/18 11:59:55;;;;;;;1.20;0.80;;;26.50;29.60;;;;;;6143091;28;20058;-80
2022/09/18 12:03:09;;;;;;;1.20;0.60;;;26.80;29.30;;;;;;6137357;28;20043;-79
2022/09/18 12:06:40;;;;;;;2.00;1.15;;;27.20;29.10;;;;;;6141422;28;20051;-79
2022/09/18 12:09:48;;;;;;;1.63;0.60;;;27.50;28.70;;;;;;6124273;28;20040;-81
2022/09/18 12:13:50;;;;;;;2.15;0.95;;;27.90;28.10;;;;;;6148244;28;20026;-79
2022/09/18 12:17:07;;;;;;;1.10;0.60;;;28.40;27.70;;;;;;6078124;29;20489;-79
2022/09/18 12:20:29;;;;;;;5.55;0.90;;;29.00;27.00;;;;;;6068532;29;20593;-79
2022/09/18 12:23:30;;;;;;;1.33;0.63;;;29.60;26.50;;;;;;6100395;29;20059;-80
2022/09/18 12:26:45;;;;;;;1.48;0.80;;;30.20;25.80;;;;;;6123531;29;20063;-81
2022/09/18 12:30:24;;;;;;;3.28;0.60;;;30.70;24.90;;;;;;6107862;29;20044;-79
2022/09/18 12:33:30;;;;;;;1.67;0.73;;;31.20;24.10;;;;;;6079719;29;20536;-81
2022/09/18 12:37:03;;;;;;;0.73;0.40;;;31.50;23.30;;;;;;6101419;29;20047;-79
2022/09/18 12:40:13;;;;;;;2.03;0.40;;;31.90;23.20;;;;;;6094128;29;20123;-80
2022/09/18 12:43:44;;;;;;;3.15;0.70;;;32.30;22.90;;;;;;6101189;29;20139;-80
2022/09/18 12:47:00;;;;;;;0.98;0.45;;;32.80;22.70;;;;;;6098394;28;20055;-79
2022/09/18 12:50:13;;;;;;;3.25;0.80;;;33.30;22.50;;;;;;6146047;28;20047;-79
2022/09/18 12:53:27;;;;;;;2.00;0.70;;;33.80;22.10;;;;;;6149612;28;20067;-80
2022/09/18 12:56:47;;;;;;;1.80;0.70;;;34.20;21.90;;;;;;6162392;28;20023;-80
2022/09/18 12:59:53;;;;;;;2.33;0.68;;;34.50;21.60;;;;;;6160544;28;20086;-81
2022/09/18 13:03:07;;;;;;;3.85;1.00;;;34.70;21.30;;;;;;6145478;28;20123;-81
2022/09/18 13:06:12;;;;;;;1.23;0.47;;;34.70;21.10;;;;;;6145771;28;20121;-79
2022/09/18 13:09:27;;;;;;;3.25;0.70;;;35.00;20.80;;;;;;6148550;28;20093;-79
2022/09/18 13:13:04;;;;;;;1.25;0.50;;;35.10;20.70;;;;;;6149280;28;20043;-80
2022/09/18 13:16:13;;;;;;;1.40;0.52;;;35.10;20.60;;;;;;6139219;28;20041;-79
2022/09/18 13:19:30;;;;;;;4.10;0.70;;;35.10;20.30;;;;;;6136330;28;20088;-81
2022/09/18 13:22:35;;;;;;;4.50;0.70;;;35.10;20.20;;;;;;6141051;28;20457;-80
2022/09/18 13:25:39;;;;;;;1.65;0.50;;;35.20;20.20;;;;;;6147039;28;20259;-79
2022/09/18 13:28:42;;;;;;;4.93;0.55;;;35.30;19.90;;;;;;6148257;28;20090;-79
2022/09/18 13:31:51;;;;;;;1.05;0.50;;;34.90;20.10;;;;;;6130999;28;20062;-80
2022/09/18 13:34:55;;;;;;;2.85;0.75;;;33.80;20.90;;;;;;6147197;28;20380;-80
2022/09/18 13:38:08;;;;;;;1.70;0.65;;;32.50;21.70;;;;;;6172996;28;20085;-79
2022/09/18 13:41:11;;;;;;;3.38;0.80;;;31.30;22.60;;;;;;6157360;28;20050;-79
2022/09/18 13:44:22;;;;;;;2.17;0.68;;;30.40;23.50;;;;;;6188837;28;20379;-79
2022/09/18 13:47:23;;;;;;;0.60;0.40;;;29.50;24.20;;;;;;6186819;28;20030;-81
2022/09/18 13:50:24;;;;;;;2.25;0.65;;;28.80;24.90;;;;;;6136907;28;20480;-80
2022/09/18 13:53:31;;;;;;;0.95;0.50;;;28.10;25.50;;;;;;6156715;28;20109;-79
2022/09/18 13:57:09;;;;;;;2.63;0.57;;;27.60;26.10;;;;;;6169691;28;20061;-79
2022/09/18 14:00:22;;;;;;;3.58;0.70;;;27.10;26.70;;;;;;6165499;28;20126;-81
2022/09/18 14:03:31;;;;;;;1.25;0.60;;;26.70;27.10;;;;;;6152902;28;20104;-79
2022/09/18 14:06:35;;;;;;;1.88;0.50;;;26.30;27.50;;;;;;6169345;28;20378;-79
2022/09/18 14:09:58;;;;;;;2.60;0.50;;;26.00;27.90;;;;;;6149376;28;20119;-79
2022/09/18 14:13:28;;;;;;;2.88;0.70;;;25.80;28.30;;;;;;6154106;28;20129;-78
2022/09/18 14:16:39;;;;;;;1.02;0.40;;;25.50;28.50;;;;;;6147653;28;20031;-79
2022/09/18 14:19:43;;;;;;;2.15;0.80;;;25.40;28.80;;;;;;6147195;28;20042;-78
2022/09/18 14:22:45;;;;;;;2.70;0.65;;;25.20;28.90;;;;;;6145342;28;20063;-80
2022/09/18 14:25:46;;;;;;;4.18;0.50;;;25.10;29.10;;;;;;6185859;28;20372;-80
2022/09/18 14:28:48;;;;;;;3.88;0.65;;;25.00;29.30;;;;;;6172407;28;20035;-79
2022/09/18 14:31:50;;;;;;;2.40;0.47;;;24.90;29.40;;;;;;6149840;28;20039;-79
2022/09/18 14:35:14;;;;;;;2.92;0.52;;;24.80;29.50;;;;;;6147764;28;20074;-79
2022/09/18 14:38:36;;;;;;;0.93;0.43;;;24.70;29.60;;;;;;6148148;28;20113;-79
2022/09/18 14:41:37;;;;;;;2.22;0.70;;;24.60;29.90;;;;;;6149205;28;20036;-79
2022/09/18 14:44:45;;;;;;;3.80;0.63;;;24.50;30.00;;;;;;6147797;28;20376;-79
2022/09/18 14:47:48;;;;;;;8.30;1.25;;;24.50;30.10;;;;;;6156284;28;20031;-78
2022/09/18 14:51:01;;;;;;;13.48;0.80;;;24.40;30.00;;;;;;6150087;28;20063;-80
2022/09/18 14:54:19;;;;;;;3.33;0.70;;;24.30;30.10;;;;;;6143784;28;20378;-79
2022/09/18 14:57:24;;;;;;;1.27;0.52;;;24.20;30.20;;;;;;6168148;28;20070;-79
2022/09/18 15:00:29;;;;;;;2.42;0.65;;;24.20;30.40;;;;;;6148133;28;20034;-79
2022/09/18 15:03:40;;;;;;;4.45;0.77;;;24.10;30.60;;;;;;6124926;28;20045;-78
2022/09/18 15:06:49;;;;;;;0.93;0.52;;;24.10;30.60;;;;;;6165905;28;20023;-79
2022/09/18 15:09:53;;;;;;;1.27;0.82;;;24.10;30.80;;;;;;6150501;28;20425;-79
2022/09/18 15:12:56;;;;;;;5.15;0.70;;;24.10;30.90;;;;;;6146685;28;20034;-80
2022/09/18 15:15:59;;;;;;;1.17;0.60;;;24.10;31.00;;;;;;6151832;28;20054;-79
2022/09/18 15:19:00;;;;;;;1.13;0.60;;;24.10;31.10;;;;;;6153048;28;20112;-79
2022/09/18 15:22:02;;;;;;;1.17;0.50;;;24.10;31.10;;;;;;6152007;28;20078;-79
2022/09/18 15:25:04;;;;;;;3.45;0.85;;;24.00;31.10;;;;;;6146182;28;20031;-79
2022/09/18 15:28:06;;;;;;;2.13;1.05;;;23.90;31.10;;;;;;6149314;28;20034;-80
2022/09/18 15:31:09;;;;;;;1.20;0.60;;;23.90;31.20;;;;;;6151862;28;20039;-80
2022/09/18 15:34:30;;;;;;;1.40;0.55;;;23.90;31.20;;;;;;6150336;28;20031;-79
2022/09/18 15:37:33;;;;;;;1.25;0.68;;;23.80;31.30;;;;;;6146880;28;20182;-79
2022/09/18 15:40:37;;;;;;;2.85;0.75;;;23.90;31.30;;;;;;6146573;28;20096;-79
2022/09/18 15:43:39;;;;;;;4.28;1.08;;;23.80;31.30;;;;;;6168127;28;20035;-79
2022/09/18 15:46:40;;;;;;;1.35;0.82;;;23.80;31.40;;;;;;6164396;28;20408;-79
2022/09/18 15:49:41;;;;;;;3.42;0.77;;;23.80;31.50;;;;;;6171406;28;20035;-79
2022/09/18 15:53:02;;;;;;;1.65;0.55;;;23.80;31.60;;;;;;6170741;28;20058;-80
2022/09/18 15:56:07;;;;;;;2.35;0.60;;;23.80;31.60;;;;;;6140338;28;20039;-79
2022/09/18 15:59:39;;;;;;;2.60;0.85;;;23.90;31.60;;;;;;6169272;28;20479;-79
2022/09/18 16:02:40;;;;;;;0.55;0.32;;;23.90;31.60;;;;;;6130876;28;20538;-80
2022/09/18 16:05:52;;;;;;;1.98;0.70;;;23.90;31.50;;;;;;6168085;28;20046;-79
2022/09/18 16:08:55;;;;;;;1.00;0.60;;;23.90;31.50;;;;;;6153816;28;20568;-79
2022/09/18 16:11:56;;;;;;;2.20;0.77;;;24.00;31.60;;;;;;6145301;28;20050;-80
2022/09/18 16:15:17;;;;;;;1.85;0.65;;;24.00;31.50;;;;;;6154903;28;20174;-80
2022/09/18 16:18:23;;;;;;;7.45;0.75;;;24.00;31.50;;;;;;6144926;28;20043;-80
2022/09/18 16:21:27;;;;;;;4.40;0.70;;;24.00;31.40;;;;;;6145056;28;20459;-80
2022/09/18 16:24:29;;;;;;;1.83;0.80;;;24.00;31.50;;;;;;6144864;28;20383;-80
2022/09/18 16:27:32;;;;;;;0.93;0.60;;;23.90;31.60;;;;;;6144793;28;20093;-80